createdAt,value
2023-03-13T00:01:50.524Z,11.26
2023-03-13T00:04:17.207Z,11.36
2023-03-13T00:06:43.885Z,11.27
2023-03-13T00:09:12.931Z,11.35
2023-03-13T00:11:39.930Z,11.06
2023-03-13T00:14:08.056Z,11.32
2023-03-13T00:16:35.706Z,11.18
2023-03-13T00:19:02.479Z,11.29
2023-03-13T00:21:29.736Z,11.17
2023-03-13T00:23:58.150Z,11.01
2023-03-13T00:26:26.647Z,11.08
2023-03-13T00:28:53.682Z,11.28
2023-03-13T00:31:23.112Z,11.30
2023-03-13T00:33:54.706Z,11.23
2023-03-13T00:36:24.069Z,10.89
2023-03-13T00:38:51.979Z,11.17
2023-03-13T00:41:22.079Z,11.10
2023-03-13T00:43:49.453Z,10.89
2023-03-13T00:46:19.034Z,11.13
2023-03-13T00:48:46.585Z,11.18
2023-03-13T00:51:15.171Z,11.17
2023-03-13T00:53:42.153Z,11.15
2023-03-13T00:56:11.807Z,11.12
2023-03-13T00:58:40.327Z,10.94
2023-03-13T01:01:15.496Z,11.00
2023-03-13T01:03:44.203Z,10.88
2023-03-13T01:06:14.172Z,10.82
2023-03-13T01:08:40.856Z,10.80
2023-03-13T01:11:22.628Z,10.87
2023-03-13T01:13:50.533Z,10.80
2023-03-13T01:16:21.460Z,10.70
2023-03-13T01:18:50.440Z,10.80
2023-03-13T01:21:19.901Z,10.76
2023-03-13T01:23:47.382Z,10.40
2023-03-13T01:26:15.100Z,10.52
2023-03-13T01:28:42.045Z,10.60
2023-03-13T01:31:18.674Z,10.75
2023-03-13T01:33:46.788Z,10.73
2023-03-13T01:36:16.332Z,10.74
2023-03-13T01:38:43.618Z,10.72
2023-03-13T01:41:12.403Z,10.70
2023-03-13T01:43:39.217Z,10.58
2023-03-13T01:46:06.063Z,10.76
2023-03-13T01:49:05.192Z,10.75
2023-03-13T01:51:44.250Z,10.83
2023-03-13T01:54:14.017Z,10.84
2023-03-13T01:56:52.700Z,10.73
2023-03-13T01:59:25.431Z,10.76
2023-03-13T02:01:55.493Z,10.83
2023-03-13T02:04:24.644Z,10.79
2023-03-13T02:06:57.436Z,10.73
2023-03-13T02:09:29.477Z,10.72
2023-03-13T02:12:04.580Z,10.83
2023-03-13T02:14:35.451Z,10.83
2023-03-13T02:17:03.798Z,10.82
2023-03-13T02:19:41.677Z,10.78
2023-03-13T02:22:31.686Z,10.80
2023-03-13T02:25:04.553Z,10.78
2023-03-13T02:27:31.384Z,10.66
2023-03-13T02:29:59.662Z,10.78
2023-03-13T02:32:28.093Z,10.75
2023-03-13T02:35:01.704Z,10.68
2023-03-13T02:37:30.910Z,10.68
2023-03-13T02:40:04.131Z,10.79
2023-03-13T02:42:31.526Z,10.71
2023-03-13T02:44:58.868Z,10.75
2023-03-13T02:47:25.550Z,10.77
2023-03-13T02:49:53.779Z,10.68
2023-03-13T02:52:28.122Z,10.77
2023-03-13T02:55:18.421Z,10.63
2023-03-13T02:57:45.448Z,10.67
2023-03-13T03:00:12.934Z,10.53
2023-03-13T03:02:40.503Z,10.64
2023-03-13T03:05:07.316Z,10.71
2023-03-13T03:07:34.090Z,10.67
2023-03-13T03:10:00.791Z,10.70
2023-03-13T03:12:27.742Z,10.62
2023-03-13T03:14:54.337Z,10.49
2023-03-13T03:17:22.416Z,10.39
2023-03-13T03:19:49.060Z,10.63
2023-03-13T03:22:15.739Z,10.52
2023-03-13T03:24:42.310Z,10.62
2023-03-13T03:27:09.092Z,10.72
2023-03-13T03:29:41.709Z,10.73
2023-03-13T03:32:08.787Z,10.68
2023-03-13T03:34:35.604Z,10.62
2023-03-13T03:37:02.290Z,10.59
2023-03-13T03:39:29.464Z,10.53
2023-03-13T03:41:56.162Z,10.57
2023-03-13T03:44:23.906Z,10.60
2023-03-13T03:46:53.995Z,10.38
2023-03-13T03:49:21.667Z,10.70
2023-03-13T03:51:49.440Z,10.58
2023-03-13T03:54:20.717Z,10.59
2023-03-13T03:56:47.701Z,10.58
2023-03-13T03:59:14.401Z,10.53
2023-03-13T04:01:45.897Z,10.55
2023-03-13T04:04:14.669Z,10.54
2023-03-13T04:06:44.604Z,10.46
2023-03-13T04:09:11.952Z,10.57
2023-03-13T04:11:38.660Z,10.53
2023-03-13T04:14:06.671Z,10.41
2023-03-13T04:16:33.544Z,10.43
2023-03-13T04:19:00.882Z,10.45
2023-03-13T04:21:27.678Z,10.45
2023-03-13T04:24:02.056Z,10.53
2023-03-13T04:26:29.469Z,10.49
2023-03-13T04:28:58.297Z,10.52
2023-03-13T04:32:00.288Z,10.58
2023-03-13T04:34:29.558Z,10.60
2023-03-13T04:37:14.696Z,10.53
2023-03-13T04:40:16.830Z,10.60
2023-03-13T04:43:09.773Z,10.63
2023-03-13T04:45:36.328Z,10.61
2023-03-13T04:48:15.420Z,10.63
2023-03-13T04:50:54.943Z,10.28
2023-03-13T04:53:50.818Z,10.54
2023-03-13T04:56:42.076Z,10.53
2023-03-13T04:59:38.903Z,10.55
2023-03-13T05:02:05.632Z,10.50
2023-03-13T05:04:52.255Z,10.54
2023-03-13T05:07:48.586Z,10.48
2023-03-13T05:10:42.980Z,10.65
2023-03-13T05:13:24.828Z,10.55
2023-03-13T05:16:23.810Z,10.64
2023-03-13T05:19:25.709Z,10.58
2023-03-13T05:22:10.843Z,10.64
2023-03-13T05:25:12.564Z,10.68
2023-03-13T05:28:17.801Z,10.58
2023-03-13T05:30:44.642Z,10.55
2023-03-13T05:33:23.198Z,10.52
2023-03-13T05:36:01.800Z,10.49
2023-03-13T05:38:40.667Z,10.40
2023-03-13T05:41:33.447Z,10.52
2023-03-13T05:44:38.719Z,10.53
2023-03-13T05:47:33.053Z,10.44
2023-03-13T05:50:09.334Z,10.55
2023-03-13T05:53:04.560Z,10.56
2023-03-13T05:55:57.479Z,10.42
2023-03-13T05:58:42.635Z,10.48
2023-03-13T06:01:18.295Z,10.57
2023-03-13T06:04:01.967Z,10.50
2023-03-13T06:06:31.212Z,10.52
2023-03-13T06:08:58.696Z,10.54
2023-03-13T06:11:28.407Z,10.59
2023-03-13T06:13:55.542Z,10.73
2023-03-13T06:16:48.503Z,10.69
2023-03-13T06:19:18.457Z,10.71
2023-03-13T06:21:45.096Z,10.80
2023-03-13T06:24:11.689Z,10.68
2023-03-13T06:26:38.337Z,10.71
2023-03-13T06:29:05.022Z,10.82
2023-03-13T06:31:32.336Z,10.90
2023-03-13T06:33:59.137Z,10.95
2023-03-13T06:36:26.046Z,10.97
2023-03-13T06:38:52.651Z,11.00
2023-03-13T06:41:19.856Z,11.06
2023-03-13T06:43:46.444Z,11.11
2023-03-13T06:46:22.357Z,11.16
2023-03-13T06:48:50.146Z,11.19
2023-03-13T06:51:19.346Z,11.15
2023-03-13T06:53:46.252Z,11.19
2023-03-13T06:56:13.241Z,11.19
2023-03-13T06:58:40.234Z,11.13
2023-03-13T07:01:10.970Z,11.21
2023-03-13T07:03:38.776Z,11.17
2023-03-13T07:06:05.996Z,11.16
2023-03-13T07:08:33.580Z,11.07
2023-03-13T07:11:03.374Z,10.99
2023-03-13T07:13:30.696Z,11.18
2023-03-13T07:16:01.374Z,11.07
2023-03-13T07:18:28.129Z,11.28
2023-03-13T07:21:00.771Z,11.11
2023-03-13T07:23:29.740Z,11.29
2023-03-13T07:26:02.564Z,11.38
2023-03-13T07:28:30.914Z,11.41
2023-03-13T07:31:10.675Z,11.45
2023-03-13T07:33:37.653Z,11.54
2023-03-13T07:36:04.782Z,11.59
2023-03-13T07:38:31.432Z,11.72
2023-03-13T07:40:58.449Z,11.69
2023-03-13T07:43:26.432Z,11.73
2023-03-13T07:46:01.800Z,11.52
2023-03-13T07:48:36.653Z,11.65
2023-03-13T07:51:05.723Z,11.62
2023-03-13T07:53:32.421Z,11.59
2023-03-13T07:56:07.804Z,11.66
2023-03-13T07:58:36.987Z,11.73
2023-03-13T08:01:16.313Z,11.68
2023-03-13T08:03:45.285Z,11.72
2023-03-13T08:06:19.156Z,11.57
2023-03-13T08:08:46.353Z,11.86
2023-03-13T08:11:12.873Z,11.89
2023-03-13T08:13:41.313Z,11.91
2023-03-13T08:16:16.061Z,11.93
2023-03-13T08:18:48.997Z,12.03
2023-03-13T08:21:21.203Z,12.08
2023-03-13T08:23:48.828Z,12.04
2023-03-13T08:26:17.698Z,11.92
2023-03-13T08:28:46.852Z,11.77
2023-03-13T08:31:18.879Z,12.00
2023-03-13T08:33:47.228Z,12.00
2023-03-13T08:36:18.018Z,11.93
2023-03-13T08:38:46.528Z,11.98
2023-03-13T08:41:19.222Z,11.71
2023-03-13T08:43:46.299Z,11.96
2023-03-13T08:46:13.402Z,12.06
2023-03-13T08:48:40.577Z,11.91
2023-03-13T08:51:10.121Z,12.00
2023-03-13T08:53:38.708Z,12.00
2023-03-13T08:56:06.016Z,12.16
2023-03-13T08:58:33.202Z,12.14
2023-03-13T09:01:08.472Z,12.54
2023-03-13T09:03:35.792Z,12.67
2023-03-13T09:06:02.871Z,12.84
2023-03-13T09:08:32.102Z,12.76
2023-03-13T09:11:01.087Z,12.89
2023-03-13T09:13:30.013Z,12.97
2023-03-13T09:16:01.771Z,12.93
2023-03-13T09:18:29.044Z,13.21
2023-03-13T09:20:55.898Z,12.93
2023-03-13T09:23:23.905Z,13.21
2023-03-13T09:25:54.615Z,13.23
2023-03-13T09:28:22.171Z,13.36
2023-03-13T09:30:50.086Z,13.69
2023-03-13T09:33:17.908Z,13.84
2023-03-13T09:35:50.574Z,14.18
2023-03-13T09:38:19.424Z,14.35
2023-03-13T09:41:03.581Z,14.21
2023-03-13T09:43:58.831Z,14.02
2023-03-13T09:46:33.839Z,14.31
2023-03-13T09:49:05.154Z,13.87
2023-03-13T09:51:42.876Z,13.73
2023-03-13T09:54:22.940Z,13.76
2023-03-13T09:56:58.085Z,13.95
2023-03-13T09:59:32.354Z,13.94
2023-03-13T10:02:02.257Z,13.89
2023-03-13T10:04:35.592Z,13.97
2023-03-13T10:07:03.568Z,13.82
2023-03-13T10:09:32.885Z,13.79
2023-03-13T10:12:08.807Z,13.81
2023-03-13T10:14:53.864Z,13.63
2023-03-13T10:17:34.886Z,13.58
2023-03-13T10:20:28.752Z,13.84
2023-03-13T10:23:03.422Z,13.98
2023-03-13T10:25:33.962Z,13.66
2023-03-13T10:28:01.813Z,13.94
2023-03-13T10:30:31.414Z,14.09
2023-03-13T10:33:17.602Z,14.08
2023-03-13T10:35:44.732Z,14.00
2023-03-13T10:38:18.812Z,14.04
2023-03-13T10:40:58.284Z,13.93
2023-03-13T10:43:26.544Z,13.78
2023-03-13T10:45:53.894Z,13.65
2023-03-13T10:48:26.474Z,13.84
2023-03-13T10:51:01.225Z,13.58
2023-03-13T10:53:28.900Z,13.49
2023-03-13T10:56:17.574Z,13.58
2023-03-13T10:58:53.346Z,13.52
2023-03-13T11:01:40.747Z,13.74
2023-03-13T11:04:26.084Z,14.02
2023-03-13T11:07:05.178Z,14.12
2023-03-13T11:09:33.385Z,14.10
2023-03-13T11:12:20.573Z,13.99
2023-03-13T11:14:47.412Z,14.13
2023-03-13T11:17:14.138Z,14.13
2023-03-13T11:20:11.572Z,14.32
2023-03-13T11:22:49.620Z,14.38
2023-03-13T11:25:30.888Z,14.38
2023-03-13T11:28:42.451Z,14.38
2023-03-13T11:31:12.044Z,14.54
2023-03-13T11:33:57.599Z,14.15
2023-03-13T11:36:35.667Z,14.31
2023-03-13T11:39:20.763Z,14.27
2023-03-13T11:41:59.996Z,14.18
2023-03-13T11:44:44.722Z,14.39
2023-03-13T11:47:20.266Z,14.19
2023-03-13T11:49:59.252Z,14.33
2023-03-13T11:52:40.846Z,14.46
2023-03-13T11:55:16.404Z,14.50
2023-03-13T11:58:20.720Z,14.67
2023-03-13T12:01:15.177Z,14.81
2023-03-13T12:04:20.952Z,14.35
2023-03-13T12:06:55.263Z,14.72
2023-03-13T12:09:21.839Z,14.75
2023-03-13T12:11:59.442Z,14.83
2023-03-13T12:14:36.536Z,14.86
2023-03-13T12:17:08.189Z,14.83
2023-03-13T12:19:53.830Z,14.97
2023-03-13T12:22:26.075Z,15.12
2023-03-13T12:25:06.604Z,15.12
2023-03-13T12:27:41.163Z,15.09
2023-03-13T12:30:23.213Z,15.19
2023-03-13T12:33:02.982Z,14.99
2023-03-13T12:35:34.505Z,15.13
2023-03-13T12:38:34.542Z,15.45
2023-03-13T12:41:14.264Z,15.09
2023-03-13T12:43:49.683Z,15.56
2023-03-13T12:46:27.149Z,15.62
2023-03-13T12:48:53.871Z,15.53
2023-03-13T12:51:43.754Z,15.41
2023-03-13T12:54:16.536Z,15.26
2023-03-13T12:56:43.100Z,15.44
2023-03-13T12:59:23.904Z,15.51
2023-03-13T13:01:54.106Z,15.21
2023-03-13T13:04:27.410Z,15.34
2023-03-13T13:07:07.540Z,15.30
2023-03-13T13:09:37.086Z,15.14
2023-03-13T13:12:19.987Z,15.25
2023-03-13T13:14:49.649Z,14.91
2023-03-13T13:17:40.737Z,14.60
2023-03-13T13:20:30.433Z,14.40
2023-03-13T13:23:16.127Z,14.43
2023-03-13T13:25:42.787Z,14.24
2023-03-13T13:28:35.558Z,14.29
2023-03-13T13:31:22.531Z,14.50
2023-03-13T13:33:49.829Z,14.59
2023-03-13T13:36:21.268Z,14.69
2023-03-13T13:38:48.271Z,14.22
2023-03-13T13:41:14.782Z,14.62
2023-03-13T13:43:47.046Z,14.55
2023-03-13T13:46:19.802Z,14.65
2023-03-13T13:48:47.550Z,14.51
2023-03-13T13:51:18.758Z,14.57
2023-03-13T13:53:56.027Z,14.52
2023-03-13T13:56:45.377Z,14.60
2023-03-13T13:59:21.036Z,14.70
2023-03-13T14:02:10.556Z,14.60
2023-03-13T14:04:50.393Z,14.62
2023-03-13T14:07:24.637Z,14.79
2023-03-13T14:10:29.186Z,14.89
2023-03-13T14:13:01.935Z,14.59
2023-03-13T14:15:30.885Z,14.62
2023-03-13T14:18:00.464Z,14.55
2023-03-13T14:20:27.368Z,14.36
2023-03-13T14:22:56.123Z,14.18
2023-03-13T14:25:24.901Z,14.18
2023-03-13T14:27:54.087Z,14.44
2023-03-13T14:30:21.957Z,14.60
2023-03-13T14:32:48.860Z,14.48
2023-03-13T14:35:19.346Z,14.39
2023-03-13T14:37:52.341Z,14.56
2023-03-13T14:40:20.202Z,14.69
2023-03-13T14:42:49.196Z,14.81
2023-03-13T14:45:22.462Z,14.79
2023-03-13T14:47:51.493Z,14.83
2023-03-13T14:50:19.463Z,14.79
2023-03-13T14:53:13.705Z,14.73
2023-03-13T14:55:44.295Z,14.55
2023-03-13T14:58:19.932Z,14.79
2023-03-13T15:00:48.750Z,14.81
2023-03-13T15:03:19.937Z,14.80
2023-03-13T15:06:03.146Z,14.80
2023-03-13T15:08:30.250Z,14.79
2023-03-13T15:10:57.169Z,14.81
2023-03-13T15:13:37.462Z,14.86
2023-03-13T15:16:15.054Z,14.47
2023-03-13T15:18:41.672Z,14.48
2023-03-13T15:21:13.885Z,14.70
2023-03-13T15:23:42.295Z,14.54
2023-03-13T15:26:08.855Z,14.46
2023-03-13T15:28:35.469Z,14.55
2023-03-13T15:31:02.048Z,14.57
2023-03-13T15:33:30.068Z,14.60
2023-03-13T15:35:57.204Z,14.77
2023-03-13T15:38:27.726Z,14.68
2023-03-13T15:40:54.984Z,14.28
2023-03-13T15:43:22.725Z,14.22
2023-03-13T15:45:51.706Z,14.32
2023-03-13T15:48:24.777Z,14.44
2023-03-13T15:50:53.070Z,14.33
2023-03-13T15:53:41.680Z,14.24
2023-03-13T15:56:21.305Z,14.24
2023-03-13T15:58:51.333Z,14.05
2023-03-13T16:01:19.872Z,13.95
2023-03-13T16:03:46.728Z,13.91
2023-03-13T16:06:30.985Z,14.03
2023-03-13T16:09:01.853Z,13.90
2023-03-13T16:11:29.321Z,13.74
2023-03-13T16:13:57.465Z,14.02
2023-03-13T16:16:31.017Z,13.71
2023-03-13T16:18:59.030Z,13.81
2023-03-13T16:21:29.360Z,13.91
2023-03-13T16:23:56.383Z,13.96
2023-03-13T16:26:25.499Z,14.03
2023-03-13T16:28:53.682Z,13.83
2023-03-13T16:31:23.056Z,13.99
2023-03-13T16:33:53.424Z,13.90
2023-03-13T16:36:23.910Z,13.70
2023-03-13T16:38:51.124Z,13.79
2023-03-13T16:41:21.326Z,13.69
2023-03-13T16:43:48.152Z,13.71
2023-03-13T16:46:23.404Z,13.42
2023-03-13T16:48:51.158Z,13.65
2023-03-13T16:51:23.204Z,13.40
2023-03-13T16:53:52.146Z,13.36
2023-03-13T16:56:36.951Z,13.44
2023-03-13T16:59:08.674Z,13.44
2023-03-13T17:01:35.635Z,13.36
2023-03-13T17:04:02.673Z,13.31
2023-03-13T17:06:33.284Z,13.33
2023-03-13T17:09:02.070Z,13.21
2023-03-13T17:11:29.596Z,13.19
2023-03-13T17:13:56.533Z,12.98
2023-03-13T17:16:43.816Z,13.11
2023-03-13T17:19:13.727Z,13.03
2023-03-13T17:21:40.526Z,12.99
2023-03-13T17:24:07.739Z,13.13
2023-03-13T17:26:37.776Z,13.07
2023-03-13T17:29:06.001Z,12.98
2023-03-13T17:31:37.400Z,12.99
2023-03-13T17:34:08.577Z,12.99
2023-03-13T17:36:35.905Z,13.02
2023-03-13T17:39:05.120Z,12.98
2023-03-13T17:41:35.259Z,12.90
2023-03-13T17:44:03.713Z,12.79
2023-03-13T17:46:36.875Z,12.95
2023-03-13T17:49:03.784Z,12.85
2023-03-13T17:51:32.661Z,12.83
2023-03-13T17:53:59.862Z,12.86
2023-03-13T17:56:32.319Z,12.96
2023-03-13T17:59:00.799Z,12.92
2023-03-13T18:01:30.504Z,13.00
2023-03-13T18:03:58.079Z,12.80
2023-03-13T18:06:28.891Z,12.97
2023-03-13T18:08:58.459Z,12.77
2023-03-13T18:11:26.724Z,12.94
2023-03-13T18:13:53.681Z,12.92
2023-03-13T18:16:30.349Z,12.91
2023-03-13T18:18:57.157Z,12.62
2023-03-13T18:21:24.616Z,12.91
2023-03-13T18:23:53.367Z,12.72
2023-03-13T18:26:31.725Z,12.35
2023-03-13T18:29:00.317Z,12.74
2023-03-13T18:31:35.942Z,12.88
2023-03-13T18:34:04.397Z,12.81
2023-03-13T18:36:31.761Z,12.83
2023-03-13T18:38:59.259Z,12.87
2023-03-13T18:41:26.018Z,12.85
2023-03-13T18:43:52.729Z,12.59
2023-03-13T18:46:26.606Z,12.84
2023-03-13T18:48:54.942Z,12.86
2023-03-13T18:51:26.452Z,12.85
2023-03-13T18:53:54.641Z,12.77
2023-03-13T18:56:27.852Z,12.84
2023-03-13T18:58:55.842Z,12.78
2023-03-13T19:01:24.406Z,12.85
2023-03-13T19:03:52.100Z,12.74
2023-03-13T19:06:31.725Z,12.84
2023-03-13T19:09:31.912Z,12.84
2023-03-13T19:11:59.785Z,12.63
2023-03-13T19:14:26.442Z,12.60
2023-03-13T19:16:56.033Z,12.58
2023-03-13T19:19:24.308Z,12.82
2023-03-13T19:22:01.966Z,12.78
2023-03-13T19:24:29.178Z,12.67
2023-03-13T19:26:58.810Z,12.72
2023-03-13T19:29:27.509Z,12.71
2023-03-13T19:31:59.210Z,12.63
2023-03-13T19:34:25.919Z,12.71
2023-03-13T19:36:53.343Z,12.76
2023-03-13T19:39:23.664Z,12.67
2023-03-13T19:41:51.110Z,12.51
2023-03-13T19:44:18.958Z,12.57
2023-03-13T19:46:46.649Z,12.56
2023-03-13T19:49:18.519Z,12.37
2023-03-13T19:51:45.223Z,12.49
2023-03-13T19:54:12.762Z,12.42
2023-03-13T19:56:41.576Z,12.43
2023-03-13T19:59:14.944Z,12.42
2023-03-13T20:01:41.859Z,12.44
2023-03-13T20:04:08.418Z,12.26
2023-03-13T20:06:36.451Z,12.27
2023-03-13T20:09:15.032Z,12.25
2023-03-13T20:11:42.509Z,12.28
2023-03-13T20:14:09.150Z,12.21
2023-03-13T20:16:35.891Z,12.08
2023-03-13T20:19:03.335Z,12.20
2023-03-13T20:21:32.135Z,12.15
2023-03-13T20:23:59.511Z,12.15
2023-03-13T20:26:27.567Z,11.83
2023-03-13T20:28:54.977Z,11.87
2023-03-13T20:31:26.057Z,12.06
2023-03-13T20:33:53.339Z,11.85
2023-03-13T20:36:20.886Z,11.81
2023-03-13T20:38:47.722Z,11.86
2023-03-13T20:41:16.178Z,11.87
2023-03-13T20:43:43.522Z,11.93
2023-03-13T20:46:10.635Z,11.89
2023-03-13T20:48:39.463Z,11.96
2023-03-13T20:51:07.970Z,11.93
2023-03-13T20:53:36.904Z,11.98
2023-03-13T20:56:06.619Z,11.61
2023-03-13T20:58:34.376Z,11.81
2023-03-13T21:01:02.003Z,11.87
2023-03-13T21:03:28.841Z,11.62
2023-03-13T21:05:55.447Z,11.75
2023-03-13T21:08:22.819Z,11.81
2023-03-13T21:10:49.634Z,11.77
2023-03-13T21:13:16.336Z,11.79
2023-03-13T21:15:43.025Z,11.65
2023-03-13T21:18:09.813Z,11.57
2023-03-13T21:20:38.189Z,11.62
2023-03-13T21:23:04.986Z,11.42
2023-03-13T21:25:31.584Z,11.55
2023-03-13T21:27:58.211Z,11.41
2023-03-13T21:30:24.824Z,11.15
2023-03-13T21:32:51.496Z,11.13
2023-03-13T21:35:18.326Z,11.24
2023-03-13T21:37:45.473Z,11.29
2023-03-13T21:40:12.431Z,11.08
2023-03-13T21:42:39.240Z,11.04
2023-03-13T21:45:06.839Z,10.91
2023-03-13T21:47:36.995Z,10.85
2023-03-13T21:50:09.955Z,11.00
2023-03-13T21:52:40.878Z,10.74
2023-03-13T21:55:11.737Z,10.94
2023-03-13T21:57:38.842Z,10.92
2023-03-13T22:00:08.218Z,10.83
2023-03-13T22:02:37.009Z,10.86
2023-03-13T22:05:04.756Z,10.71
2023-03-13T22:07:31.306Z,10.76
2023-03-13T22:09:58.284Z,10.82
2023-03-13T22:12:25.673Z,10.75
2023-03-13T22:14:53.218Z,10.60
2023-03-13T22:17:20.677Z,10.66
2023-03-13T22:19:47.897Z,10.68
2023-03-13T22:22:15.929Z,10.56
2023-03-13T22:24:42.560Z,10.54
2023-03-13T22:27:10.330Z,10.45
2023-03-13T22:29:37.146Z,10.56
2023-03-13T22:32:04.395Z,10.46
2023-03-13T22:34:31.271Z,10.49
2023-03-13T22:36:58.926Z,10.47
2023-03-13T22:39:25.555Z,10.24
2023-03-13T22:41:53.228Z,10.54
2023-03-13T22:44:19.869Z,10.45
2023-03-13T22:46:46.515Z,10.45
2023-03-13T22:49:13.114Z,10.38
2023-03-13T22:51:39.843Z,10.36
2023-03-13T22:54:06.484Z,10.32
2023-03-13T22:56:33.161Z,10.21
2023-03-13T22:59:00.049Z,9.99
2023-03-13T23:01:26.833Z,9.97
2023-03-13T23:03:53.532Z,10.03
2023-03-13T23:06:23.178Z,10.10
2023-03-13T23:08:50.629Z,9.88
2023-03-13T23:11:18.119Z,9.94
2023-03-13T23:13:45.059Z,9.78
2023-03-13T23:16:12.548Z,10.00
2023-03-13T23:18:40.018Z,10.05
2023-03-13T23:21:12.019Z,10.09
2023-03-13T23:23:39.369Z,9.98
2023-03-13T23:26:08.884Z,10.09
2023-03-13T23:28:37.233Z,9.94
2023-03-13T23:31:17.283Z,10.06
2023-03-13T23:33:44.669Z,9.95
2023-03-13T23:36:14.879Z,10.08
2023-03-13T23:38:42.077Z,10.05
2023-03-13T23:41:10.841Z,9.98
2023-03-13T23:43:38.124Z,10.07
2023-03-13T23:46:05.470Z,10.05
2023-03-13T23:48:32.460Z,9.86
2023-03-13T23:50:59.024Z,9.94
2023-03-13T23:53:25.707Z,9.86
2023-03-13T23:55:58.965Z,9.88
2023-03-13T23:58:25.746Z,9.85
